Pagrindinis puslapis
METAR-TAF:

METAR-TAF

Oro uostai :

Roswell International Air Center

Roswell, Naujoji Meksika, Jungtinės Amerikos Valstijos

platuma: 33-18-29N, ilguma: 104-30-28W, Aukštis: 1118 m

Dabartinis oras

Ataskaita buvo paskelbta 37 minutes, ne 10:51 UTC
Vėjas 3 kt iš Pietvakarių
Temperatūra 18°C
Drėgmė 45%
Slėgis 1025 hPa
Matomumas: 16.1 km
Giedras dangus

METAR: KROW 291051Z AUTO 23003KT 10SM CLR 18/06 A3027 RMK AO2 SLP185 T01830056 $

Laikas: 05:28 (11:28 UTC)

Prognozė

Ataskaita buvo paskelbta 5 valandos ir 49 minutes, ne 05:39 UTC
Prognozė galioja nuo 29 metu 06 UTC su 30 metu 06 UTC
Vėjas 5 kt nuo kintamojo kryptimis
Matomumas: 10 km
Mažai debesys ne aukštis 9000 ft
Nuo 29 metu 1900 UTC
Vėjas 10 kt iš Pietų/Pietryčių su gūsio iki 16 kt
Matomumas: 10 km
Mažai debesys ne aukštis 9000 ft
Nuo 30 metu 0200 UTC
Vėjas 8 kt iš Pietų
Matomumas: 10 km
Mažai debesys ne aukštis 9000 ft

TAF: KROW 290539Z 2906/3006 VRB05KT P6SM FEW090 FM291900 16010G16KT P6SM FEW090 FM300200 17008KT P6SM FEW090

Orai ataskaitas ir orų prognozės (METAR, TAF).

turimą stotys yra geltonos ir raudonos taškus žemėlapyje.

Perkelti pele per norėdami pamatyti stoties vardą.

Tada spustelėkite, norėdami matyti oro stebėjimo ir prognozės.

Norėdami pakeisti žemėlapį: spustelėkite ant žalios mygtukų su juodo kryžiaus žemyn,; žalią mygtuką su brūkšneliu, jei norite nutolinti; arba žalių rodyklių gretimoms žemėlapius.


METAR-TAF: